createdAt,value
2017-12-20T00:00:17.620Z,18.12
2017-12-20T00:02:44.579Z,18.75
2017-12-20T00:05:11.182Z,17.08
2017-12-20T00:07:37.718Z,16.95
2017-12-20T00:10:04.314Z,17.83
2017-12-20T00:12:30.858Z,17.62
2017-12-20T00:14:57.474Z,16.05
2017-12-20T00:17:24.078Z,18.42
2017-12-20T00:19:51.119Z,19.33
2017-12-20T00:22:18.081Z,18.20
2017-12-20T00:24:45.238Z,18.27
2017-12-20T00:27:12.198Z,19.92
2017-12-20T00:29:39.165Z,20.67
2017-12-20T00:32:06.142Z,17.25
2017-12-20T00:34:33.141Z,19.33
2017-12-20T00:36:59.801Z,18.87
2017-12-20T00:39:26.526Z,17.90
2017-12-20T00:41:53.100Z,18.40
2017-12-20T00:44:19.750Z,21.42
2017-12-20T00:46:46.438Z,19.20
2017-12-20T00:49:13.350Z,20.77
2017-12-20T00:51:39.895Z,21.85
2017-12-20T00:54:06.493Z,21.33
2017-12-20T00:56:33.478Z,22.08
2017-12-20T00:59:00.014Z,22.00
2017-12-20T01:01:26.673Z,23.48
2017-12-20T01:03:53.226Z,18.67
2017-12-20T01:06:19.899Z,21.77
2017-12-20T01:08:46.554Z,20.50
2017-12-20T01:11:13.199Z,22.42
2017-12-20T01:13:39.851Z,21.87
2017-12-20T01:16:06.466Z,21.95
2017-12-20T01:18:33.118Z,21.15
2017-12-20T01:20:59.670Z,22.10
2017-12-20T01:23:26.274Z,21.75
2017-12-20T01:25:53.300Z,21.25
2017-12-20T01:28:19.949Z,23.45
2017-12-20T01:30:46.566Z,20.52
2017-12-20T01:33:13.111Z,21.67
2017-12-20T01:35:39.650Z,19.75
2017-12-20T01:38:06.270Z,20.90
2017-12-20T01:40:33.259Z,21.70
2017-12-20T01:42:59.926Z,21.67
2017-12-20T01:45:26.528Z,20.70
2017-12-20T01:47:53.554Z,21.40
2017-12-20T01:50:20.174Z,20.27
2017-12-20T01:52:46.778Z,21.05
2017-12-20T01:55:13.340Z,20.77
2017-12-20T01:57:40.455Z,21.58
2017-12-20T02:00:07.074Z,20.52
2017-12-20T02:02:33.754Z,21.87
2017-12-20T02:05:00.294Z,21.65
2017-12-20T02:07:26.913Z,21.10
2017-12-20T02:09:53.458Z,22.20
2017-12-20T02:12:20.035Z,21.10
2017-12-20T02:14:46.647Z,22.75
2017-12-20T02:17:13.228Z,21.27
2017-12-20T02:19:39.892Z,22.08
2017-12-20T02:22:06.643Z,22.27
2017-12-20T02:24:33.258Z,22.13
2017-12-20T02:26:59.941Z,22.55
2017-12-20T02:29:26.693Z,21.80
2017-12-20T02:31:53.446Z,19.35
2017-12-20T02:34:20.087Z,21.00
2017-12-20T02:36:46.870Z,21.20
2017-12-20T02:39:13.497Z,20.40
2017-12-20T02:41:40.118Z,21.90
2017-12-20T02:44:06.794Z,21.60
2017-12-20T02:46:33.444Z,21.33
2017-12-20T02:49:00.068Z,18.37
2017-12-20T02:51:27.051Z,21.83
2017-12-20T02:53:53.903Z,22.15
2017-12-20T02:56:20.519Z,20.25
2017-12-20T02:58:47.205Z,19.35
2017-12-20T03:01:13.954Z,23.40
2017-12-20T03:03:40.571Z,21.75
2017-12-20T03:06:07.247Z,23.75
2017-12-20T03:08:33.810Z,19.58
2017-12-20T03:11:00.429Z,19.92
2017-12-20T03:13:27.181Z,20.27
2017-12-20T03:15:55.079Z,20.20
2017-12-20T03:18:21.625Z,21.10
2017-12-20T03:20:48.377Z,19.08
2017-12-20T03:23:14.946Z,21.20
2017-12-20T03:25:41.550Z,21.42
2017-12-20T03:28:08.263Z,19.12
2017-12-20T03:30:35.218Z,19.48
2017-12-20T03:33:02.202Z,20.73
2017-12-20T03:35:28.814Z,20.70
2017-12-20T03:37:55.362Z,20.30
2017-12-20T03:40:21.981Z,20.05
2017-12-20T03:42:48.735Z,17.75
2017-12-20T03:45:15.329Z,18.83
2017-12-20T03:47:42.341Z,19.23
2017-12-20T03:50:09.235Z,18.95
2017-12-20T03:52:36.234Z,18.52
2017-12-20T03:55:02.877Z,18.48
2017-12-20T03:57:29.726Z,19.12
2017-12-20T03:59:56.374Z,17.23
2017-12-20T04:02:22.922Z,18.00
2017-12-20T04:04:49.646Z,18.20
2017-12-20T04:07:16.249Z,18.50
2017-12-20T04:09:42.798Z,19.52
2017-12-20T04:12:09.444Z,17.30
2017-12-20T04:14:35.998Z,18.02
2017-12-20T04:17:02.641Z,18.73
2017-12-20T04:19:29.496Z,17.35
2017-12-20T04:21:56.118Z,19.05
2017-12-20T04:24:22.654Z,16.55
2017-12-20T04:26:49.255Z,19.30
2017-12-20T04:29:15.814Z,18.45
2017-12-20T04:31:42.363Z,19.40
2017-12-20T04:34:09.030Z,17.77
2017-12-20T04:36:35.946Z,17.60
2017-12-20T04:39:02.575Z,17.90
2017-12-20T04:41:29.210Z,17.83
2017-12-20T04:43:55.788Z,17.45
2017-12-20T04:46:22.435Z,16.90
2017-12-20T04:48:49.042Z,18.17
2017-12-20T04:51:15.586Z,17.30
2017-12-20T04:53:42.151Z,16.12
2017-12-20T04:56:08.838Z,16.65
2017-12-20T04:58:35.447Z,16.60
2017-12-20T05:01:02.123Z,17.45
2017-12-20T05:03:28.730Z,17.40
2017-12-20T05:05:55.306Z,16.02
2017-12-20T05:08:21.867Z,16.40
2017-12-20T05:10:48.494Z,15.13
2017-12-20T05:13:15.025Z,18.55
2017-12-20T05:15:41.574Z,22.40
2017-12-20T05:18:08.181Z,19.60
2017-12-20T05:20:34.737Z,21.80
2017-12-20T05:23:01.651Z,28.12
2017-12-20T05:25:28.495Z,21.85
2017-12-20T05:27:55.165Z,18.08
2017-12-20T05:30:21.869Z,18.52
2017-12-20T05:32:48.976Z,15.80
2017-12-20T05:35:15.575Z,18.85
2017-12-20T05:37:42.134Z,17.33
2017-12-20T05:40:08.821Z,16.62
2017-12-20T05:42:35.442Z,15.73
2017-12-20T05:45:02.119Z,15.93
2017-12-20T05:47:28.919Z,15.27
2017-12-20T05:49:55.838Z,17.65
2017-12-20T05:52:22.475Z,17.48
2017-12-20T05:54:49.087Z,17.77
2017-12-20T05:57:15.713Z,17.50
2017-12-20T05:59:42.635Z,16.50
2017-12-20T06:02:09.279Z,17.92
2017-12-20T06:04:35.928Z,15.82
2017-12-20T06:07:02.469Z,15.68
2017-12-20T06:09:29.078Z,14.40
2017-12-20T06:11:55.629Z,17.12
2017-12-20T06:14:22.191Z,16.37
2017-12-20T06:16:48.867Z,13.80
2017-12-20T06:19:15.403Z,15.63
2017-12-20T06:21:42.371Z,17.65
2017-12-20T06:24:09.003Z,17.70
2017-12-20T06:26:35.570Z,16.98
2017-12-20T06:29:02.216Z,15.48
2017-12-20T06:31:28.827Z,16.62
2017-12-20T06:33:55.374Z,15.52
2017-12-20T06:36:21.949Z,14.43
2017-12-20T06:38:48.594Z,15.65
2017-12-20T06:41:15.142Z,17.02
2017-12-20T06:43:41.698Z,17.00
2017-12-20T06:46:08.389Z,15.73
2017-12-20T06:48:35.311Z,17.15
2017-12-20T06:51:01.854Z,18.15
2017-12-20T06:53:28.450Z,15.60
2017-12-20T06:55:55.371Z,17.20
2017-12-20T06:58:21.933Z,15.70
2017-12-20T07:00:48.561Z,16.65
2017-12-20T07:03:15.102Z,16.30
2017-12-20T07:05:41.638Z,15.20
2017-12-20T07:08:08.238Z,16.33
2017-12-20T07:10:34.786Z,14.70
2017-12-20T07:13:01.727Z,15.73
2017-12-20T07:15:28.329Z,15.82
2017-12-20T07:17:54.862Z,13.35
2017-12-20T07:20:21.411Z,16.75
2017-12-20T07:22:48.015Z,16.70
2017-12-20T07:25:14.564Z,14.85
2017-12-20T07:27:41.110Z,17.20
2017-12-20T07:30:07.886Z,16.23
2017-12-20T07:32:34.813Z,16.33
2017-12-20T07:35:01.362Z,16.75
2017-12-20T07:37:27.993Z,15.23
2017-12-20T07:39:54.567Z,15.10
2017-12-20T07:42:21.506Z,13.43
2017-12-20T07:44:48.122Z,14.38
2017-12-20T07:47:14.658Z,15.80
2017-12-20T07:49:41.193Z,13.75
2017-12-20T07:52:07.801Z,13.85
2017-12-20T07:54:34.341Z,14.32
2017-12-20T07:57:00.891Z,12.50
2017-12-20T07:59:27.485Z,13.50
2017-12-20T08:01:54.031Z,15.13
2017-12-20T08:04:20.560Z,13.07
2017-12-20T08:06:47.533Z,15.30
2017-12-20T08:09:14.090Z,14.43
2017-12-20T08:11:40.639Z,15.18
2017-12-20T08:14:07.250Z,13.00
2017-12-20T08:16:34.164Z,14.23
2017-12-20T08:19:00.711Z,11.85
2017-12-20T08:21:27.307Z,14.55
2017-12-20T08:23:54.266Z,14.82
2017-12-20T08:26:21.236Z,15.00
2017-12-20T08:28:47.884Z,14.85
2017-12-20T08:31:14.476Z,14.15
2017-12-20T08:33:41.034Z,14.48
2017-12-20T08:36:07.662Z,14.15
2017-12-20T08:38:34.243Z,12.52
2017-12-20T08:41:00.786Z,11.65
2017-12-20T08:43:27.381Z,13.02
2017-12-20T08:45:53.925Z,13.40
2017-12-20T08:48:20.469Z,13.88
2017-12-20T08:50:47.110Z,14.85
2017-12-20T08:53:14.034Z,14.27
2017-12-20T08:55:40.586Z,13.62
2017-12-20T08:58:07.195Z,13.35
2017-12-20T09:00:33.784Z,12.45
2017-12-20T09:03:00.334Z,12.65
2017-12-20T09:05:26.948Z,13.23
2017-12-20T09:07:53.491Z,14.00
2017-12-20T09:10:20.082Z,12.98
2017-12-20T09:12:47.054Z,12.95
2017-12-20T09:15:13.982Z,12.10
2017-12-20T09:17:40.527Z,13.02
2017-12-20T09:20:07.138Z,14.40
2017-12-20T09:22:33.714Z,13.27
2017-12-20T09:25:00.265Z,12.37
2017-12-20T09:27:27.051Z,15.73
2017-12-20T09:29:54.011Z,17.95
2017-12-20T09:32:20.575Z,16.73
2017-12-20T09:34:47.199Z,16.23
2017-12-20T09:37:14.153Z,14.63
2017-12-20T09:39:41.158Z,13.88
2017-12-20T09:42:07.782Z,14.85
2017-12-20T09:44:34.340Z,15.48
2017-12-20T09:47:00.882Z,15.18
2017-12-20T09:49:27.481Z,13.77
2017-12-20T09:51:54.112Z,16.20
2017-12-20T09:54:20.760Z,14.90
2017-12-20T09:56:47.409Z,16.90
2017-12-20T09:59:14.160Z,16.05
2017-12-20T10:01:40.736Z,15.77
2017-12-20T10:04:07.356Z,15.32
2017-12-20T10:06:33.910Z,15.25
2017-12-20T10:09:00.470Z,14.55
2017-12-20T10:11:27.143Z,14.20
2017-12-20T10:13:54.634Z,14.20
2017-12-20T10:16:21.223Z,11.88
2017-12-20T10:18:47.814Z,12.20
2017-12-20T10:21:14.755Z,12.32
2017-12-20T10:23:41.322Z,13.30
2017-12-20T10:26:07.982Z,13.98
2017-12-20T10:28:34.562Z,15.13
2017-12-20T10:31:01.150Z,14.85
2017-12-20T10:33:28.320Z,18.30
2017-12-20T10:35:55.382Z,13.80
2017-12-20T10:38:22.346Z,13.77
2017-12-20T10:40:49.041Z,12.25
2017-12-20T10:43:15.602Z,12.13
2017-12-20T10:45:42.146Z,11.63
2017-12-20T10:48:09.847Z,11.50
2017-12-20T10:50:36.807Z,11.50
2017-12-20T10:53:03.427Z,11.07
2017-12-20T10:55:30.193Z,13.95
2017-12-20T10:57:57.126Z,11.20
2017-12-20T11:00:23.734Z,10.98
2017-12-20T11:02:50.370Z,9.25
2017-12-20T11:05:16.958Z,9.02
2017-12-20T11:07:43.541Z,8.65
2017-12-20T11:10:10.590Z,7.55
2017-12-20T11:12:37.593Z,5.50
2017-12-20T11:15:04.149Z,5.85
2017-12-20T11:17:30.824Z,6.65
2017-12-20T11:19:57.383Z,7.30
2017-12-20T11:22:24.033Z,6.62
2017-12-20T11:24:50.662Z,7.47
2017-12-20T11:27:17.234Z,5.30
2017-12-20T11:29:43.804Z,9.15
2017-12-20T11:32:10.942Z,9.10
2017-12-20T11:34:37.494Z,8.60
2017-12-20T11:37:04.449Z,7.90
2017-12-20T11:39:31.454Z,9.40
2017-12-20T11:41:58.038Z,8.73
2017-12-20T11:44:24.598Z,9.98
2017-12-20T11:46:51.239Z,8.75
2017-12-20T11:49:17.822Z,10.73
2017-12-20T11:51:44.397Z,10.85
2017-12-20T11:54:11.026Z,8.10
2017-12-20T11:56:37.611Z,8.15
2017-12-20T11:59:04.171Z,7.10
2017-12-20T12:01:30.889Z,6.47
2017-12-20T12:03:57.456Z,7.10
2017-12-20T12:06:31.107Z,8.38
2017-12-20T12:08:58.066Z,8.95
2017-12-20T12:11:25.001Z,8.57
2017-12-20T12:13:51.759Z,7.93
2017-12-20T12:16:18.293Z,7.75
2017-12-20T12:18:44.842Z,7.57
2017-12-20T12:21:11.546Z,7.45
2017-12-20T12:23:38.135Z,7.12
2017-12-20T12:26:04.762Z,7.95
2017-12-20T12:28:31.446Z,8.77
2017-12-20T12:30:58.080Z,8.85
2017-12-20T12:33:24.702Z,9.30
2017-12-20T12:35:51.360Z,8.52
2017-12-20T12:38:17.929Z,8.10
2017-12-20T12:40:44.494Z,7.70
2017-12-20T12:43:11.379Z,9.55
2017-12-20T12:45:38.054Z,9.45
2017-12-20T12:48:04.626Z,8.93
2017-12-20T12:50:31.398Z,8.70
2017-12-20T12:52:57.995Z,10.30
2017-12-20T12:55:24.542Z,8.20
2017-12-20T12:57:51.174Z,8.65
2017-12-20T13:00:17.812Z,8.80
2017-12-20T13:02:44.753Z,8.98
2017-12-20T13:05:11.454Z,9.60
2017-12-20T13:07:38.006Z,9.15
2017-12-20T13:10:04.552Z,8.07
2017-12-20T13:12:31.361Z,7.32
2017-12-20T13:14:58.282Z,8.00
2017-12-20T13:17:24.862Z,7.80
2017-12-20T13:19:51.858Z,8.40
2017-12-20T13:22:18.414Z,8.38
2017-12-20T13:24:44.954Z,8.00
2017-12-20T13:27:11.571Z,7.47
2017-12-20T13:29:38.493Z,7.90
2017-12-20T13:32:05.050Z,8.85
2017-12-20T13:34:31.661Z,7.82
2017-12-20T13:36:58.214Z,8.13
2017-12-20T13:39:24.794Z,7.82
2017-12-20T13:41:51.406Z,8.00
2017-12-20T13:44:18.033Z,8.00
2017-12-20T13:46:44.578Z,7.70
2017-12-20T13:49:11.244Z,8.23
2017-12-20T13:51:37.823Z,5.90
2017-12-20T13:54:04.383Z,7.82
2017-12-20T13:56:30.995Z,9.55
2017-12-20T13:58:57.590Z,8.68
2017-12-20T14:01:24.519Z,8.77
2017-12-20T14:03:51.311Z,8.27
2017-12-20T14:06:18.255Z,7.90
2017-12-20T14:08:45.218Z,6.93
2017-12-20T14:11:12.203Z,7.90
2017-12-20T14:13:38.763Z,7.37
2017-12-20T14:16:05.382Z,7.28
2017-12-20T14:18:32.374Z,8.40
2017-12-20T14:20:58.914Z,7.43
2017-12-20T14:23:25.457Z,7.40
2017-12-20T14:25:52.190Z,6.95
2017-12-20T14:28:18.730Z,7.60
2017-12-20T14:30:45.658Z,7.15
2017-12-20T14:33:12.265Z,6.30
2017-12-20T14:35:38.818Z,6.85
2017-12-20T14:38:05.379Z,7.40
2017-12-20T14:40:32.002Z,9.88
2017-12-20T14:42:58.555Z,9.60
2017-12-20T14:45:25.202Z,10.05
2017-12-20T14:47:51.826Z,7.70
2017-12-20T14:50:18.403Z,7.25
2017-12-20T14:52:44.970Z,8.38
2017-12-20T14:55:11.642Z,8.27
2017-12-20T14:57:38.260Z,7.78
2017-12-20T15:00:04.882Z,8.70
2017-12-20T15:02:31.717Z,6.75
2017-12-20T15:04:58.662Z,9.30
2017-12-20T15:07:25.619Z,9.35
2017-12-20T15:09:52.807Z,8.55
2017-12-20T15:12:19.402Z,7.55
2017-12-20T15:14:46.008Z,8.30
2017-12-20T15:17:12.704Z,7.97
2017-12-20T15:19:39.269Z,8.20
2017-12-20T15:22:05.921Z,6.32
2017-12-20T15:24:32.905Z,7.75
2017-12-20T15:26:59.442Z,8.60
2017-12-20T15:29:26.026Z,7.85
2017-12-20T15:31:52.691Z,11.05
2017-12-20T15:34:19.297Z,8.57
2017-12-20T15:36:45.873Z,9.88
2017-12-20T15:39:12.604Z,11.50
2017-12-20T15:41:39.238Z,12.70
2017-12-20T15:44:05.847Z,10.65
2017-12-20T15:46:32.607Z,10.00
2017-12-20T15:48:59.185Z,12.02
2017-12-20T15:51:25.858Z,12.57
2017-12-20T15:53:52.511Z,12.20
2017-12-20T15:56:19.091Z,10.57
2017-12-20T15:58:45.673Z,13.05
2017-12-20T16:01:12.742Z,9.50
2017-12-20T16:03:39.310Z,9.27
2017-12-20T16:06:05.883Z,12.43
2017-12-20T16:08:32.510Z,10.15
2017-12-20T16:10:59.105Z,10.63
2017-12-20T16:13:25.690Z,10.32
2017-12-20T16:15:52.318Z,10.27
2017-12-20T16:18:19.246Z,9.00
2017-12-20T16:20:45.814Z,9.55
2017-12-20T16:23:12.814Z,10.45
2017-12-20T16:25:39.365Z,9.82
2017-12-20T16:28:05.938Z,8.10
2017-12-20T16:30:32.695Z,9.80
2017-12-20T16:32:59.322Z,9.63
2017-12-20T16:35:25.924Z,10.85
2017-12-20T16:37:53.038Z,10.15
2017-12-20T16:40:19.627Z,9.52
2017-12-20T16:42:46.602Z,10.75
2017-12-20T16:45:13.267Z,13.10
2017-12-20T16:47:39.886Z,10.95
2017-12-20T16:50:06.818Z,8.65
2017-12-20T16:52:33.526Z,12.32
2017-12-20T16:55:00.094Z,11.00
2017-12-20T16:57:26.695Z,10.23
2017-12-20T16:59:53.714Z,11.27
2017-12-20T17:02:20.303Z,8.15
2017-12-20T17:04:46.882Z,11.15
2017-12-20T17:07:13.518Z,12.02
2017-12-20T17:09:40.122Z,10.48
2017-12-20T17:12:06.695Z,10.50
2017-12-20T17:14:33.326Z,12.10
2017-12-20T17:16:59.946Z,8.93
2017-12-20T17:19:26.566Z,11.75
2017-12-20T17:21:53.390Z,11.43
2017-12-20T17:24:20.466Z,9.65
2017-12-20T17:26:47.158Z,9.43
2017-12-20T17:29:13.770Z,9.43
2017-12-20T17:31:40.430Z,10.48
2017-12-20T17:34:06.991Z,8.98
2017-12-20T17:36:33.674Z,9.27
2017-12-20T17:39:00.251Z,9.90
2017-12-20T17:41:26.827Z,8.75
2017-12-20T17:43:53.438Z,8.75
2017-12-20T17:46:20.404Z,6.93
2017-12-20T17:48:47.045Z,7.55
2017-12-20T17:51:14.054Z,8.40
2017-12-20T17:53:40.623Z,7.60
2017-12-20T17:56:07.210Z,8.15
2017-12-20T17:58:33.838Z,6.87
2017-12-20T18:01:00.774Z,8.00
2017-12-20T18:03:27.354Z,7.70
2017-12-20T18:05:54.366Z,7.53
2017-12-20T18:08:20.934Z,8.07
2017-12-20T18:10:47.486Z,8.27
2017-12-20T18:13:14.186Z,7.95
2017-12-20T18:15:40.862Z,7.22
2017-12-20T18:18:07.513Z,7.18
2017-12-20T18:20:34.310Z,7.50
2017-12-20T18:23:01.234Z,6.70
2017-12-20T18:25:28.207Z,8.40
2017-12-20T18:27:55.194Z,7.47
2017-12-20T18:30:21.766Z,8.02
2017-12-20T18:32:48.382Z,8.23
2017-12-20T18:35:15.543Z,8.45
2017-12-20T18:37:42.599Z,7.70
2017-12-20T18:40:09.250Z,7.87
2017-12-20T18:42:36.405Z,7.70
2017-12-20T18:45:03.357Z,6.82
2017-12-20T18:47:30.607Z,8.15
2017-12-20T18:49:57.247Z,8.27
2017-12-20T18:52:23.842Z,7.90
2017-12-20T18:54:50.433Z,7.37
2017-12-20T18:57:17.062Z,8.02
2017-12-20T18:59:43.610Z,9.20
2017-12-20T19:02:10.262Z,9.27
2017-12-20T19:04:36.915Z,6.75
2017-12-20T19:07:03.487Z,9.02
2017-12-20T19:09:30.054Z,8.90
2017-12-20T19:11:57.043Z,8.95
2017-12-20T19:14:23.619Z,8.90
2017-12-20T19:16:50.160Z,11.07
2017-12-20T19:19:16.862Z,10.57
2017-12-20T19:21:43.809Z,8.50
2017-12-20T19:24:10.738Z,9.23
2017-12-20T19:26:37.386Z,10.40
2017-12-20T19:29:03.970Z,10.30
2017-12-20T19:31:30.954Z,11.57
2017-12-20T19:33:57.565Z,12.32
2017-12-20T19:36:24.538Z,11.20
2017-12-20T19:38:51.135Z,11.30
2017-12-20T19:41:17.810Z,11.27
2017-12-20T19:43:44.499Z,8.95
2017-12-20T19:46:11.313Z,9.43
2017-12-20T19:48:38.395Z,9.77
2017-12-20T19:51:05.712Z,7.95
2017-12-20T19:53:32.512Z,7.65
2017-12-20T19:55:59.771Z,9.05
2017-12-20T19:58:26.936Z,8.20
2017-12-20T20:00:53.772Z,9.32
2017-12-20T20:03:20.877Z,9.02
2017-12-20T20:05:48.667Z,10.20
2017-12-20T20:08:15.504Z,9.43
2017-12-20T20:10:42.422Z,8.88
2017-12-20T20:13:09.249Z,9.75
2017-12-20T20:15:36.023Z,9.20
2017-12-20T20:18:02.915Z,9.98
2017-12-20T20:20:29.710Z,10.15
2017-12-20T20:22:56.542Z,9.15
2017-12-20T20:25:23.526Z,10.45
2017-12-20T20:27:50.305Z,9.55
2017-12-20T20:30:17.495Z,11.20
2017-12-20T20:32:44.412Z,10.68
2017-12-20T20:35:11.218Z,12.23
2017-12-20T20:37:38.053Z,10.93
2017-12-20T20:40:04.975Z,11.20
2017-12-20T20:42:32.178Z,10.88
2017-12-20T20:44:59.009Z,12.63
2017-12-20T20:47:26.454Z,10.82
2017-12-20T20:49:53.310Z,10.23
2017-12-20T20:52:20.059Z,10.65
2017-12-20T20:54:46.947Z,11.70
2017-12-20T20:57:13.735Z,12.05
2017-12-20T20:59:40.543Z,9.80
2017-12-20T21:02:07.878Z,11.55
2017-12-20T21:04:34.696Z,11.32
2017-12-20T21:07:01.697Z,11.82
2017-12-20T21:09:29.023Z,11.02
2017-12-20T21:11:55.852Z,12.13
2017-12-20T21:14:22.661Z,11.43
2017-12-20T21:16:49.628Z,10.40
2017-12-20T21:19:16.482Z,10.80
2017-12-20T21:21:44.091Z,10.73
2017-12-20T21:24:11.106Z,9.15
2017-12-20T21:26:38.065Z,11.65
2017-12-20T21:29:05.120Z,10.18
2017-12-20T21:31:33.645Z,9.85
2017-12-20T21:34:01.051Z,11.45
2017-12-20T21:36:27.941Z,11.15
2017-12-20T21:38:54.894Z,9.95
2017-12-20T21:41:21.849Z,11.70
2017-12-20T21:43:48.813Z,10.65
2017-12-20T21:46:16.185Z,12.45
2017-12-20T21:48:43.019Z,10.23
2017-12-20T21:51:10.088Z,12.05
2017-12-20T21:53:36.950Z,10.50
2017-12-20T21:56:03.740Z,9.95
2017-12-20T21:58:30.761Z,10.52
2017-12-20T22:00:57.636Z,10.18
2017-12-20T22:03:25.073Z,9.43
2017-12-20T22:05:52.034Z,11.38
2017-12-20T22:08:18.881Z,10.88
2017-12-20T22:10:45.844Z,10.77
2017-12-20T22:13:12.921Z,10.30
2017-12-20T22:15:39.710Z,12.23
2017-12-20T22:18:06.503Z,12.50
2017-12-20T22:20:33.501Z,11.50
2017-12-20T22:23:00.686Z,11.63
2017-12-20T22:25:27.482Z,11.82
2017-12-20T22:27:54.377Z,11.15
2017-12-20T22:30:21.291Z,11.32
2017-12-20T22:32:48.253Z,11.90
2017-12-20T22:35:15.507Z,12.13
2017-12-20T22:37:42.070Z,12.48
2017-12-20T22:40:08.619Z,12.13
2017-12-20T22:42:35.448Z,13.07
2017-12-20T22:45:02.606Z,11.75
2017-12-20T22:47:29.185Z,13.48
2017-12-20T22:49:56.150Z,12.95
2017-12-20T22:52:23.077Z,12.98
2017-12-20T22:54:49.629Z,12.70
2017-12-20T22:57:16.362Z,13.93
2017-12-20T22:59:42.898Z,12.15
2017-12-20T23:02:09.451Z,13.95
2017-12-20T23:04:36.107Z,14.80
2017-12-20T23:07:02.667Z,16.02
2017-12-20T23:09:29.302Z,15.95
2017-12-20T23:11:56.061Z,12.00
2017-12-20T23:14:22.678Z,12.40
2017-12-20T23:16:49.214Z,13.30
2017-12-20T23:19:15.942Z,14.15
2017-12-20T23:21:42.861Z,14.50
2017-12-20T23:24:09.891Z,14.30
2017-12-20T23:26:36.772Z,13.60
2017-12-20T23:29:04.154Z,13.30
2017-12-20T23:31:30.702Z,12.98
2017-12-20T23:33:57.482Z,12.95
2017-12-20T23:36:24.383Z,14.38
2017-12-20T23:38:50.979Z,13.32
2017-12-20T23:41:17.957Z,13.50
2017-12-20T23:43:44.647Z,14.23
2017-12-20T23:46:11.299Z,14.35
2017-12-20T23:48:38.023Z,12.20
2017-12-20T23:51:04.697Z,14.20
2017-12-20T23:53:31.266Z,15.10
2017-12-20T23:55:57.870Z,14.18
2017-12-20T23:58:24.515Z,15.10
